Taza, Morocco
Current Conditions -  °F | °C
As of 10:00 AM on Friday 24 Oct 2014 (Local Time) from GMFF Reporting Station
Clear Clear  
Wind Chill: 75°   Ceiling: Unl
Heat Index: 75°   Visibility: 6mi
Dew Point: 36°   Wind: 3mph
Humidity: 24%   Direction: 20°NNE
Pressure: 30.06"   Gusts: NA
Location:  34.22°N, 4.02°W
Report Text: GMFF 240900Z 02003KT 330V060 CAVOK 24/02 Q1018 NOSIG
Loading
Personal Weather Stations






























Interactive Weather Map
Tropical Storm Tracking
New forecast layout! Learn more

10-Day Weather Forecast

Advertisements
Track Severe Weather on mobile